sensor_id;sensor_type;location;lat;lon;timestamp;temperature;humidity
8563;DHT22;16392;52.508;13.468;2024-01-30T00:01:36;3.00;1.00
8563;DHT22;16392;52.508;13.468;2024-01-30T00:04:03;3.00;1.00
8563;DHT22;16392;52.508;13.468;2024-01-30T00:06:31;3.00;1.00
8563;DHT22;16392;52.508;13.468;2024-01-30T00:08:58;3.00;99.90
8563;DHT22;16392;52.508;13.468;2024-01-30T00:11:25;2.90;1.00
8563;DHT22;16392;52.508;13.468;2024-01-30T00:13:51;2.90;1.00
8563;DHT22;16392;52.508;13.468;2024-01-30T00:16:20;2.90;1.00
8563;DHT22;16392;52.508;13.468;2024-01-30T00:18:47;2.90;1.00
8563;DHT22;16392;52.508;13.468;2024-01-30T00:21:13;2.80;24.70
8563;DHT22;16392;52.508;13.468;2024-01-30T00:23:41;2.80;99.90
8563;DHT22;16392;52.508;13.468;2024-01-30T00:26:08;2.70;99.90
8563;DHT22;16392;52.508;13.468;2024-01-30T00:28:35;2.70;4.50
8563;DHT22;16392;52.508;13.468;2024-01-30T00:31:01;2.70;99.90
8563;DHT22;16392;52.508;13.468;2024-01-30T00:33:28;2.70;1.00
8563;DHT22;16392;52.508;13.468;2024-01-30T00:35:55;2.60;1.00
8563;DHT22;16392;52.508;13.468;2024-01-30T00:38:21;2.60;1.00
8563;DHT22;16392;52.508;13.468;2024-01-30T00:40:49;2.60;1.00
8563;DHT22;16392;52.508;13.468;2024-01-30T00:43:16;2.60;1.00
8563;DHT22;16392;52.508;13.468;2024-01-30T00:45:43;2.50;99.90
8563;DHT22;16392;52.508;13.468;2024-01-30T00:48:10;2.60;99.90
8563;DHT22;16392;52.508;13.468;2024-01-30T00:50:36;2.60;99.90
8563;DHT22;16392;52.508;13.468;2024-01-30T00:53:03;2.60;18.00
8563;DHT22;16392;52.508;13.468;2024-01-30T00:55:30;2.60;1.00
8563;DHT22;16392;52.508;13.468;2024-01-30T00:57:58;2.60;1.00
8563;DHT22;16392;52.508;13.468;2024-01-30T01:00:24;2.60;99.90
8563;DHT22;16392;52.508;13.468;2024-01-30T01:02:54;2.50;1.00
8563;DHT22;16392;52.508;13.468;2024-01-30T01:05:21;2.50;99.90
8563;DHT22;16392;52.508;13.468;2024-01-30T01:07:47;2.40;1.00
8563;DHT22;16392;52.508;13.468;2024-01-30T01:10:14;2.40;1.00
8563;DHT22;16392;52.508;13.468;2024-01-30T01:12:41;2.50;99.90
8563;DHT22;16392;52.508;13.468;2024-01-30T01:15:11;2.40;99.90
8563;DHT22;16392;52.508;13.468;2024-01-30T01:17:38;2.40;99.90
8563;DHT22;16392;52.508;13.468;2024-01-30T01:20:07;2.40;1.00
8563;DHT22;16392;52.508;13.468;2024-01-30T01:22:35;2.40;1.00
8563;DHT22;16392;52.508;13.468;2024-01-30T01:25:04;2.40;99.90
8563;DHT22;16392;52.508;13.468;2024-01-30T01:27:32;2.40;1.00
8563;DHT22;16392;52.508;13.468;2024-01-30T01:29:59;2.50;99.90
8563;DHT22;16392;52.508;13.468;2024-01-30T01:32:27;2.50;99.90
8563;DHT22;16392;52.508;13.468;2024-01-30T01:34:54;2.40;99.90
8563;DHT22;16392;52.508;13.468;2024-01-30T01:37:21;2.40;99.90
8563;DHT22;16392;52.508;13.468;2024-01-30T01:39:48;2.40;1.00
8563;DHT22;16392;52.508;13.468;2024-01-30T01:42:14;2.30;1.00
8563;DHT22;16392;52.508;13.468;2024-01-30T01:44:41;2.30;1.00
8563;DHT22;16392;52.508;13.468;2024-01-30T01:47:07;2.30;1.00
8563;DHT22;16392;52.508;13.468;2024-01-30T01:49:36;2.30;99.90
8563;DHT22;16392;52.508;13.468;2024-01-30T01:52:03;2.30;99.90
8563;DHT22;16392;52.508;13.468;2024-01-30T01:54:30;2.20;12.30
8563;DHT22;16392;52.508;13.468;2024-01-30T01:56:57;2.20;99.90
8563;DHT22;16392;52.508;13.468;2024-01-30T01:59:23;2.10;43.20
8563;DHT22;16392;52.508;13.468;2024-01-30T02:01:51;2.10;99.90
8563;DHT22;16392;52.508;13.468;2024-01-30T02:04:18;2.10;99.90
8563;DHT22;16392;52.508;13.468;2024-01-30T02:06:48;2.20;99.90
8563;DHT22;16392;52.508;13.468;2024-01-30T02:09:14;2.20;99.90
8563;DHT22;16392;52.508;13.468;2024-01-30T02:11:41;2.20;99.90
8563;DHT22;16392;52.508;13.468;2024-01-30T02:14:08;2.20;99.90
8563;DHT22;16392;52.508;13.468;2024-01-30T02:16:35;2.20;1.00
8563;DHT22;16392;52.508;13.468;2024-01-30T02:19:02;2.10;70.60
8563;DHT22;16392;52.508;13.468;2024-01-30T02:21:30;2.10;99.90
8563;DHT22;16392;52.508;13.468;2024-01-30T02:23:57;2.00;1.00
8563;DHT22;16392;52.508;13.468;2024-01-30T02:26:24;2.10;99.90
8563;DHT22;16392;52.508;13.468;2024-01-30T02:28:51;2.20;99.90
8563;DHT22;16392;52.508;13.468;2024-01-30T02:31:18;2.10;99.90
8563;DHT22;16392;52.508;13.468;2024-01-30T02:33:44;2.10;1.00
8563;DHT22;16392;52.508;13.468;2024-01-30T02:36:11;2.20;99.90
8563;DHT22;16392;52.508;13.468;2024-01-30T02:38:39;2.10;99.90
8563;DHT22;16392;52.508;13.468;2024-01-30T02:41:06;2.10;1.00
8563;DHT22;16392;52.508;13.468;2024-01-30T02:43:32;2.20;99.90
8563;DHT22;16392;52.508;13.468;2024-01-30T02:45:59;2.10;1.00
8563;DHT22;16392;52.508;13.468;2024-01-30T02:48:26;2.10;1.00
8563;DHT22;16392;52.508;13.468;2024-01-30T02:50:53;2.20;1.00
8563;DHT22;16392;52.508;13.468;2024-01-30T02:53:19;2.20;99.90
8563;DHT22;16392;52.508;13.468;2024-01-30T02:55:49;2.20;1.00
8563;DHT22;16392;52.508;13.468;2024-01-30T02:58:15;2.20;99.90
8563;DHT22;16392;52.508;13.468;2024-01-30T03:00:42;2.20;1.00
8563;DHT22;16392;52.508;13.468;2024-01-30T03:03:11;2.20;1.00
8563;DHT22;16392;52.508;13.468;2024-01-30T03:05:37;2.10;1.00
8563;DHT22;16392;52.508;13.468;2024-01-30T03:08:04;2.10;1.00
8563;DHT22;16392;52.508;13.468;2024-01-30T03:10:31;2.20;1.00
8563;DHT22;16392;52.508;13.468;2024-01-30T03:12:59;2.20;1.00
8563;DHT22;16392;52.508;13.468;2024-01-30T03:15:26;2.20;1.00
8563;DHT22;16392;52.508;13.468;2024-01-30T03:17:53;2.20;1.00
8563;DHT22;16392;52.508;13.468;2024-01-30T03:20:20;2.20;1.00
8563;DHT22;16392;52.508;13.468;2024-01-30T03:22:47;2.20;1.00
8563;DHT22;16392;52.508;13.468;2024-01-30T03:25:13;2.10;1.00
8563;DHT22;16392;52.508;13.468;2024-01-30T03:27:40;2.10;1.00
8563;DHT22;16392;52.508;13.468;2024-01-30T03:30:09;2.10;1.00
8563;DHT22;16392;52.508;13.468;2024-01-30T03:32:35;2.10;98.30
8563;DHT22;16392;52.508;13.468;2024-01-30T03:35:02;2.10;99.90
8563;DHT22;16392;52.508;13.468;2024-01-30T03:37:29;2.10;99.90
8563;DHT22;16392;52.508;13.468;2024-01-30T03:39:56;2.10;99.90
8563;DHT22;16392;52.508;13.468;2024-01-30T03:42:22;2.00;1.00
8563;DHT22;16392;52.508;13.468;2024-01-30T03:44:49;2.00;1.00
8563;DHT22;16392;52.508;13.468;2024-01-30T03:47:18;1.90;1.00
8563;DHT22;16392;52.508;13.468;2024-01-30T03:49:45;2.00;1.00
8563;DHT22;16392;52.508;13.468;2024-01-30T03:52:12;2.00;1.00
8563;DHT22;16392;52.508;13.468;2024-01-30T03:54:38;2.00;1.00
8563;DHT22;16392;52.508;13.468;2024-01-30T03:57:06;2.00;1.00
8563;DHT22;16392;52.508;13.468;2024-01-30T03:59:33;2.00;1.00
8563;DHT22;16392;52.508;13.468;2024-01-30T04:02:00;2.00;1.00
8563;DHT22;16392;52.508;13.468;2024-01-30T04:04:28;1.90;1.00
8563;DHT22;16392;52.508;13.468;2024-01-30T04:06:54;2.00;1.00
8563;DHT22;16392;52.508;13.468;2024-01-30T04:09:21;2.00;1.00
8563;DHT22;16392;52.508;13.468;2024-01-30T04:11:48;2.00;1.00
8563;DHT22;16392;52.508;13.468;2024-01-30T04:14:15;2.00;1.00
8563;DHT22;16392;52.508;13.468;2024-01-30T04:16:41;2.00;1.00
8563;DHT22;16392;52.508;13.468;2024-01-30T04:19:08;1.90;1.00
8563;DHT22;16392;52.508;13.468;2024-01-30T04:21:36;1.90;9.60
8563;DHT22;16392;52.508;13.468;2024-01-30T04:24:03;1.80;18.90
8563;DHT22;16392;52.508;13.468;2024-01-30T04:26:29;1.80;94.60
8563;DHT22;16392;52.508;13.468;2024-01-30T04:28:56;1.80;99.90
8563;DHT22;16392;52.508;13.468;2024-01-30T04:31:22;1.90;99.90
8563;DHT22;16392;52.508;13.468;2024-01-30T04:33:49;1.90;99.90
8563;DHT22;16392;52.508;13.468;2024-01-30T04:36:16;1.90;99.90
8563;DHT22;16392;52.508;13.468;2024-01-30T04:38:43;1.90;99.90
8563;DHT22;16392;52.508;13.468;2024-01-30T04:41:10;1.90;99.90
8563;DHT22;16392;52.508;13.468;2024-01-30T04:43:37;1.90;99.90
8563;DHT22;16392;52.508;13.468;2024-01-30T04:46:04;1.90;99.90
8563;DHT22;16392;52.508;13.468;2024-01-30T04:48:30;1.90;99.90
8563;DHT22;16392;52.508;13.468;2024-01-30T04:50:57;1.90;99.90
8563;DHT22;16392;52.508;13.468;2024-01-30T04:53:23;2.00;99.90
8563;DHT22;16392;52.508;13.468;2024-01-30T04:55:51;2.00;99.90
8563;DHT22;16392;52.508;13.468;2024-01-30T04:58:18;2.10;99.90
8563;DHT22;16392;52.508;13.468;2024-01-30T05:00:45;2.10;99.90
8563;DHT22;16392;52.508;13.468;2024-01-30T05:03:16;2.10;99.90
8563;DHT22;16392;52.508;13.468;2024-01-30T05:05:43;2.00;99.90
8563;DHT22;16392;52.508;13.468;2024-01-30T05:08:10;2.00;99.90
8563;DHT22;16392;52.508;13.468;2024-01-30T05:10:36;2.10;99.90
8563;DHT22;16392;52.508;13.468;2024-01-30T05:13:04;2.10;99.90
8563;DHT22;16392;52.508;13.468;2024-01-30T05:15:31;2.00;99.90
8563;DHT22;16392;52.508;13.468;2024-01-30T05:17:57;2.00;99.90
8563;DHT22;16392;52.508;13.468;2024-01-30T05:20:24;2.00;99.90
8563;DHT22;16392;52.508;13.468;2024-01-30T05:22:53;2.00;99.90
8563;DHT22;16392;52.508;13.468;2024-01-30T05:25:20;2.00;99.90
8563;DHT22;16392;52.508;13.468;2024-01-30T05:27:46;2.00;99.90
8563;DHT22;16392;52.508;13.468;2024-01-30T05:30:15;2.00;99.90
8563;DHT22;16392;52.508;13.468;2024-01-30T05:32:41;2.10;99.90
8563;DHT22;16392;52.508;13.468;2024-01-30T05:35:08;2.00;99.90
8563;DHT22;16392;52.508;13.468;2024-01-30T05:37:34;2.10;99.90
8563;DHT22;16392;52.508;13.468;2024-01-30T05:40:01;2.00;99.90
8563;DHT22;16392;52.508;13.468;2024-01-30T05:42:28;2.00;99.90
8563;DHT22;16392;52.508;13.468;2024-01-30T05:44:55;2.10;99.90
8563;DHT22;16392;52.508;13.468;2024-01-30T05:47:24;2.10;99.90
8563;DHT22;16392;52.508;13.468;2024-01-30T05:49:50;2.00;99.90
8563;DHT22;16392;52.508;13.468;2024-01-30T05:52:17;2.10;99.90
8563;DHT22;16392;52.508;13.468;2024-01-30T05:54:44;2.00;99.90
8563;DHT22;16392;52.508;13.468;2024-01-30T05:57:11;2.00;99.90
8563;DHT22;16392;52.508;13.468;2024-01-30T05:59:37;2.00;99.90
8563;DHT22;16392;52.508;13.468;2024-01-30T06:02:04;2.10;99.90
8563;DHT22;16392;52.508;13.468;2024-01-30T06:04:32;2.10;99.90
8563;DHT22;16392;52.508;13.468;2024-01-30T06:07:00;2.00;99.90
8563;DHT22;16392;52.508;13.468;2024-01-30T06:09:27;2.00;99.90
8563;DHT22;16392;52.508;13.468;2024-01-30T06:11:54;2.00;99.90
8563;DHT22;16392;52.508;13.468;2024-01-30T06:14:20;1.90;99.90
8563;DHT22;16392;52.508;13.468;2024-01-30T06:16:47;2.00;99.90
8563;DHT22;16392;52.508;13.468;2024-01-30T06:19:13;2.00;99.90
8563;DHT22;16392;52.508;13.468;2024-01-30T06:21:41;2.10;99.90
8563;DHT22;16392;52.508;13.468;2024-01-30T06:24:08;2.10;99.90
8563;DHT22;16392;52.508;13.468;2024-01-30T06:26:35;2.10;99.90
8563;DHT22;16392;52.508;13.468;2024-01-30T06:29:02;2.10;99.90
8563;DHT22;16392;52.508;13.468;2024-01-30T06:31:28;2.10;99.90
8563;DHT22;16392;52.508;13.468;2024-01-30T06:33:55;2.20;99.90
8563;DHT22;16392;52.508;13.468;2024-01-30T06:36:21;2.20;99.90
8563;DHT22;16392;52.508;13.468;2024-01-30T06:38:49;2.20;99.90
8563;DHT22;16392;52.508;13.468;2024-01-30T06:41:17;2.10;99.90
8563;DHT22;16392;52.508;13.468;2024-01-30T06:43:44;2.10;99.90
8563;DHT22;16392;52.508;13.468;2024-01-30T06:46:11;2.10;99.90
8563;DHT22;16392;52.508;13.468;2024-01-30T06:48:38;2.00;99.90
8563;DHT22;16392;52.508;13.468;2024-01-30T06:51:05;2.00;99.90
8563;DHT22;16392;52.508;13.468;2024-01-30T06:53:32;2.10;99.90
8563;DHT22;16392;52.508;13.468;2024-01-30T06:56:00;2.00;99.90
8563;DHT22;16392;52.508;13.468;2024-01-30T06:58:26;2.10;99.90
8563;DHT22;16392;52.508;13.468;2024-01-30T07:00:53;2.10;99.90
8563;DHT22;16392;52.508;13.468;2024-01-30T07:03:20;2.10;99.90
8563;DHT22;16392;52.508;13.468;2024-01-30T07:05:47;2.20;99.90
8563;DHT22;16392;52.508;13.468;2024-01-30T07:08:14;2.20;99.90
8563;DHT22;16392;52.508;13.468;2024-01-30T07:10:43;2.30;99.90
8563;DHT22;16392;52.508;13.468;2024-01-30T07:13:11;2.30;99.90
8563;DHT22;16392;52.508;13.468;2024-01-30T07:15:37;2.30;99.90
8563;DHT22;16392;52.508;13.468;2024-01-30T07:18:05;2.30;99.90
8563;DHT22;16392;52.508;13.468;2024-01-30T07:20:31;2.30;99.90
8563;DHT22;16392;52.508;13.468;2024-01-30T07:22:58;2.40;99.90
8563;DHT22;16392;52.508;13.468;2024-01-30T07:25:25;2.40;99.90
8563;DHT22;16392;52.508;13.468;2024-01-30T07:27:53;2.40;99.90
8563;DHT22;16392;52.508;13.468;2024-01-30T07:30:21;2.40;99.90
8563;DHT22;16392;52.508;13.468;2024-01-30T07:32:48;2.50;99.90
8563;DHT22;16392;52.508;13.468;2024-01-30T07:35:15;2.50;55.40
8563;DHT22;16392;52.508;13.468;2024-01-30T07:37:42;2.60;1.00
8563;DHT22;16392;52.508;13.468;2024-01-30T07:40:09;2.70;1.00
8563;DHT22;16392;52.508;13.468;2024-01-30T07:42:36;2.70;1.00
8563;DHT22;16392;52.508;13.468;2024-01-30T07:45:03;2.70;1.00
8563;DHT22;16392;52.508;13.468;2024-01-30T07:47:31;2.80;1.00
8563;DHT22;16392;52.508;13.468;2024-01-30T07:49:58;2.80;1.00
8563;DHT22;16392;52.508;13.468;2024-01-30T07:52:24;2.80;1.00
8563;DHT22;16392;52.508;13.468;2024-01-30T07:54:51;2.90;99.90
8563;DHT22;16392;52.508;13.468;2024-01-30T07:57:18;2.90;99.90
8563;DHT22;16392;52.508;13.468;2024-01-30T07:59:45;3.00;99.90
8563;DHT22;16392;52.508;13.468;2024-01-30T08:02:13;3.10;20.10
8563;DHT22;16392;52.508;13.468;2024-01-30T08:04:41;3.20;1.00
8563;DHT22;16392;52.508;13.468;2024-01-30T08:07:08;3.20;1.00
8563;DHT22;16392;52.508;13.468;2024-01-30T08:09:34;3.20;1.00
8563;DHT22;16392;52.508;13.468;2024-01-30T08:12:01;3.30;99.90
8563;DHT22;16392;52.508;13.468;2024-01-30T08:14:28;3.30;99.90
8563;DHT22;16392;52.508;13.468;2024-01-30T08:16:54;3.40;2.70
8563;DHT22;16392;52.508;13.468;2024-01-30T08:19:22;3.30;1.00
8563;DHT22;16392;52.508;13.468;2024-01-30T08:21:51;3.40;99.90
8563;DHT22;16392;52.508;13.468;2024-01-30T08:24:18;3.50;1.00
8563;DHT22;16392;52.508;13.468;2024-01-30T08:26:44;3.60;1.00
8563;DHT22;16392;52.508;13.468;2024-01-30T08:29:11;3.60;99.90
8563;DHT22;16392;52.508;13.468;2024-01-30T08:31:37;3.60;1.00
8563;DHT22;16392;52.508;13.468;2024-01-30T08:34:04;3.70;1.00
8563;DHT22;16392;52.508;13.468;2024-01-30T08:36:31;3.70;71.90
8563;DHT22;16392;52.508;13.468;2024-01-30T08:38:59;3.80;1.00
8563;DHT22;16392;52.508;13.468;2024-01-30T08:41:25;3.90;62.20
8563;DHT22;16392;52.508;13.468;2024-01-30T08:43:52;4.00;26.00
8563;DHT22;16392;52.508;13.468;2024-01-30T08:46:19;4.00;1.00
8563;DHT22;16392;52.508;13.468;2024-01-30T08:48:46;4.10;1.00
8563;DHT22;16392;52.508;13.468;2024-01-30T08:51:13;4.20;99.90
8563;DHT22;16392;52.508;13.468;2024-01-30T08:53:40;4.30;93.20
8563;DHT22;16392;52.508;13.468;2024-01-30T08:56:08;4.50;99.90
8563;DHT22;16392;52.508;13.468;2024-01-30T08:58:35;4.70;1.00
8563;DHT22;16392;52.508;13.468;2024-01-30T09:01:02;4.90;1.00
8563;DHT22;16392;52.508;13.468;2024-01-30T09:03:30;5.20;55.20
8563;DHT22;16392;52.508;13.468;2024-01-30T09:05:57;5.50;1.00
8563;DHT22;16392;52.508;13.468;2024-01-30T09:08:26;5.70;1.00
8563;DHT22;16392;52.508;13.468;2024-01-30T09:10:53;6.00;1.00
8563;DHT22;16392;52.508;13.468;2024-01-30T09:13:21;6.20;1.00
8563;DHT22;16392;52.508;13.468;2024-01-30T09:15:48;6.30;99.90
8563;DHT22;16392;52.508;13.468;2024-01-30T09:18:15;6.40;1.00
8563;DHT22;16392;52.508;13.468;2024-01-30T09:20:41;6.30;1.00
8563;DHT22;16392;52.508;13.468;2024-01-30T09:23:08;6.20;1.00
8563;DHT22;16392;52.508;13.468;2024-01-30T09:25:35;6.30;1.00
8563;DHT22;16392;52.508;13.468;2024-01-30T09:28:01;6.20;1.00
8563;DHT22;16392;52.508;13.468;2024-01-30T09:30:29;6.20;1.00
8563;DHT22;16392;52.508;13.468;2024-01-30T09:32:56;6.00;1.00
8563;DHT22;16392;52.508;13.468;2024-01-30T09:35:23;6.10;1.00
8563;DHT22;16392;52.508;13.468;2024-01-30T09:37:49;6.20;1.00
8563;DHT22;16392;52.508;13.468;2024-01-30T09:40:17;6.20;1.00
8563;DHT22;16392;52.508;13.468;2024-01-30T09:42:46;6.20;99.90
8563;DHT22;16392;52.508;13.468;2024-01-30T09:45:14;6.30;99.90
8563;DHT22;16392;52.508;13.468;2024-01-30T09:47:43;6.30;99.90
8563;DHT22;16392;52.508;13.468;2024-01-30T09:50:10;6.30;99.90
8563;DHT22;16392;52.508;13.468;2024-01-30T09:52:38;6.20;99.90
8563;DHT22;16392;52.508;13.468;2024-01-30T09:55:05;6.30;99.90
8563;DHT22;16392;52.508;13.468;2024-01-30T09:57:32;6.30;99.90
8563;DHT22;16392;52.508;13.468;2024-01-30T09:59:58;6.30;99.90
8563;DHT22;16392;52.508;13.468;2024-01-30T10:02:25;6.40;16.50
8563;DHT22;16392;52.508;13.468;2024-01-30T10:04:53;6.40;44.60
8563;DHT22;16392;52.508;13.468;2024-01-30T10:07:20;6.50;1.00
8563;DHT22;16392;52.508;13.468;2024-01-30T10:09:48;6.80;1.00
8563;DHT22;16392;52.508;13.468;2024-01-30T10:12:16;6.90;99.90
8563;DHT22;16392;52.508;13.468;2024-01-30T10:14:43;7.00;99.90
8563;DHT22;16392;52.508;13.468;2024-01-30T10:17:11;7.00;99.90
8563;DHT22;16392;52.508;13.468;2024-01-30T10:19:40;7.00;99.90
8563;DHT22;16392;52.508;13.468;2024-01-30T10:22:09;7.00;99.90
8563;DHT22;16392;52.508;13.468;2024-01-30T10:24:37;7.00;99.90
8563;DHT22;16392;52.508;13.468;2024-01-30T10:27:05;7.10;83.30
8563;DHT22;16392;52.508;13.468;2024-01-30T10:29:32;7.10;8.10
8563;DHT22;16392;52.508;13.468;2024-01-30T10:31:59;7.10;55.80
8563;DHT22;16392;52.508;13.468;2024-01-30T10:34:26;7.10;1.00
8563;DHT22;16392;52.508;13.468;2024-01-30T10:36:59;7.20;1.00
8563;DHT22;16392;52.508;13.468;2024-01-30T10:39:29;7.40;1.00
8563;DHT22;16392;52.508;13.468;2024-01-30T10:42:03;7.40;1.00
8563;DHT22;16392;52.508;13.468;2024-01-30T10:44:36;7.30;1.00
8563;DHT22;16392;52.508;13.468;2024-01-30T10:47:07;7.40;1.00
8563;DHT22;16392;52.508;13.468;2024-01-30T10:49:38;7.40;1.00
8563;DHT22;16392;52.508;13.468;2024-01-30T10:52:08;7.60;1.00
8563;DHT22;16392;52.508;13.468;2024-01-30T10:54:37;7.70;1.00
8563;DHT22;16392;52.508;13.468;2024-01-30T10:57:05;7.80;1.00
8563;DHT22;16392;52.508;13.468;2024-01-30T10:59:33;7.80;1.00
8563;DHT22;16392;52.508;13.468;2024-01-30T11:02:00;7.80;99.90
8563;DHT22;16392;52.508;13.468;2024-01-30T11:04:27;7.90;99.90
8563;DHT22;16392;52.508;13.468;2024-01-30T11:06:54;8.10;99.90
8563;DHT22;16392;52.508;13.468;2024-01-30T11:09:20;8.20;99.90
8563;DHT22;16392;52.508;13.468;2024-01-30T11:11:56;8.30;99.90
8563;DHT22;16392;52.508;13.468;2024-01-30T11:14:25;8.30;99.90
8563;DHT22;16392;52.508;13.468;2024-01-30T11:16:52;8.30;1.00
8563;DHT22;16392;52.508;13.468;2024-01-30T11:19:23;8.40;1.00
8563;DHT22;16392;52.508;13.468;2024-01-30T11:21:51;8.50;1.00
8563;DHT22;16392;52.508;13.468;2024-01-30T11:24:19;8.50;1.00
8563;DHT22;16392;52.508;13.468;2024-01-30T11:26:48;8.40;1.00
8563;DHT22;16392;52.508;13.468;2024-01-30T11:29:17;8.40;1.00
8563;DHT22;16392;52.508;13.468;2024-01-30T11:31:52;8.30;1.00
8563;DHT22;16392;52.508;13.468;2024-01-30T11:34:19;8.20;1.00
8563;DHT22;16392;52.508;13.468;2024-01-30T11:36:51;8.30;1.00
8563;DHT22;16392;52.508;13.468;2024-01-30T11:39:20;8.40;1.00
8563;DHT22;16392;52.508;13.468;2024-01-30T11:41:47;8.20;99.90
8563;DHT22;16392;52.508;13.468;2024-01-30T11:44:18;8.30;99.90
8563;DHT22;16392;52.508;13.468;2024-01-30T11:46:46;8.30;99.90
8563;DHT22;16392;52.508;13.468;2024-01-30T11:49:12;8.50;99.90
8563;DHT22;16392;52.508;13.468;2024-01-30T11:51:39;8.40;99.90
8563;DHT22;16392;52.508;13.468;2024-01-30T11:54:07;8.30;99.90
8563;DHT22;16392;52.508;13.468;2024-01-30T11:56:34;8.30;99.90
8563;DHT22;16392;52.508;13.468;2024-01-30T11:59:01;8.30;99.90
8563;DHT22;16392;52.508;13.468;2024-01-30T12:01:29;8.20;99.90
8563;DHT22;16392;52.508;13.468;2024-01-30T12:03:58;8.30;99.90
8563;DHT22;16392;52.508;13.468;2024-01-30T12:06:25;8.40;1.00
8563;DHT22;16392;52.508;13.468;2024-01-30T12:08:57;8.40;99.90
8563;DHT22;16392;52.508;13.468;2024-01-30T12:11:24;8.40;1.00
8563;DHT22;16392;52.508;13.468;2024-01-30T12:13:51;8.40;1.00
8563;DHT22;16392;52.508;13.468;2024-01-30T12:16:20;8.60;1.00
8563;DHT22;16392;52.508;13.468;2024-01-30T12:18:48;8.60;1.00
8563;DHT22;16392;52.508;13.468;2024-01-30T12:21:16;8.60;1.00
8563;DHT22;16392;52.508;13.468;2024-01-30T12:23:43;8.70;99.90
8563;DHT22;16392;52.508;13.468;2024-01-30T12:26:11;8.80;1.00
8563;DHT22;16392;52.508;13.468;2024-01-30T12:28:48;8.60;1.00
8563;DHT22;16392;52.508;13.468;2024-01-30T12:31:14;8.60;1.00
8563;DHT22;16392;52.508;13.468;2024-01-30T12:33:41;8.60;1.00
8563;DHT22;16392;52.508;13.468;2024-01-30T12:36:09;8.60;1.00
8563;DHT22;16392;52.508;13.468;2024-01-30T12:38:37;8.60;1.00
8563;DHT22;16392;52.508;13.468;2024-01-30T12:41:07;8.60;1.00
8563;DHT22;16392;52.508;13.468;2024-01-30T12:43:34;8.60;1.00
8563;DHT22;16392;52.508;13.468;2024-01-30T12:46:00;8.60;1.00
8563;DHT22;16392;52.508;13.468;2024-01-30T12:48:28;8.60;1.00
8563;DHT22;16392;52.508;13.468;2024-01-30T12:50:55;8.60;1.00
8563;DHT22;16392;52.508;13.468;2024-01-30T12:53:23;8.60;1.00
8563;DHT22;16392;52.508;13.468;2024-01-30T12:55:50;8.60;1.00
8563;DHT22;16392;52.508;13.468;2024-01-30T12:58:17;8.60;1.00
8563;DHT22;16392;52.508;13.468;2024-01-30T13:00:44;8.70;1.00
8563;DHT22;16392;52.508;13.468;2024-01-30T13:03:10;8.70;1.00
8563;DHT22;16392;52.508;13.468;2024-01-30T13:05:37;8.70;1.00
8563;DHT22;16392;52.508;13.468;2024-01-30T13:08:05;8.70;1.00
8563;DHT22;16392;52.508;13.468;2024-01-30T13:10:33;8.70;1.00
8563;DHT22;16392;52.508;13.468;2024-01-30T13:13:00;8.70;1.00
8563;DHT22;16392;52.508;13.468;2024-01-30T13:15:27;8.70;1.00
8563;DHT22;16392;52.508;13.468;2024-01-30T13:17:53;8.70;1.00
8563;DHT22;16392;52.508;13.468;2024-01-30T13:20:20;8.70;1.00
8563;DHT22;16392;52.508;13.468;2024-01-30T13:22:47;8.80;1.00
8563;DHT22;16392;52.508;13.468;2024-01-30T13:25:16;8.80;1.00
8563;DHT22;16392;52.508;13.468;2024-01-30T13:27:44;8.80;1.00
8563;DHT22;16392;52.508;13.468;2024-01-30T13:30:11;8.80;1.00
8563;DHT22;16392;52.508;13.468;2024-01-30T13:32:38;8.80;1.00
8563;DHT22;16392;52.508;13.468;2024-01-30T13:35:07;8.80;1.00
8563;DHT22;16392;52.508;13.468;2024-01-30T13:37:34;8.90;1.00
8563;DHT22;16392;52.508;13.468;2024-01-30T13:40:01;8.90;1.00
8563;DHT22;16392;52.508;13.468;2024-01-30T13:42:28;8.90;1.00
8563;DHT22;16392;52.508;13.468;2024-01-30T13:44:56;8.90;1.00
8563;DHT22;16392;52.508;13.468;2024-01-30T13:47:22;9.00;1.00
8563;DHT22;16392;52.508;13.468;2024-01-30T13:49:49;9.00;1.00
8563;DHT22;16392;52.508;13.468;2024-01-30T13:52:18;9.00;1.00
8563;DHT22;16392;52.508;13.468;2024-01-30T13:54:44;9.10;1.00
8563;DHT22;16392;52.508;13.468;2024-01-30T13:57:11;9.10;1.00
8563;DHT22;16392;52.508;13.468;2024-01-30T13:59:38;9.10;1.00
8563;DHT22;16392;52.508;13.468;2024-01-30T14:02:07;9.20;1.00
8563;DHT22;16392;52.508;13.468;2024-01-30T14:04:35;9.10;1.00
8563;DHT22;16392;52.508;13.468;2024-01-30T14:07:03;9.10;1.00
8563;DHT22;16392;52.508;13.468;2024-01-30T14:09:31;9.10;1.00
8563;DHT22;16392;52.508;13.468;2024-01-30T14:11:59;9.10;1.00
8563;DHT22;16392;52.508;13.468;2024-01-30T14:14:26;9.10;1.00
8563;DHT22;16392;52.508;13.468;2024-01-30T14:17:12;9.10;1.00
8563;DHT22;16392;52.508;13.468;2024-01-30T14:19:39;9.10;19.10
8563;DHT22;16392;52.508;13.468;2024-01-30T14:22:06;9.10;54.80
8563;DHT22;16392;52.508;13.468;2024-01-30T14:24:33;9.10;69.80
8563;DHT22;16392;52.508;13.468;2024-01-30T14:27:00;9.00;99.90
8563;DHT22;16392;52.508;13.468;2024-01-30T14:29:27;9.00;99.90
8563;DHT22;16392;52.508;13.468;2024-01-30T14:31:53;9.00;99.90
8563;DHT22;16392;52.508;13.468;2024-01-30T14:34:23;9.00;99.90
8563;DHT22;16392;52.508;13.468;2024-01-30T14:36:54;9.00;99.90
8563;DHT22;16392;52.508;13.468;2024-01-30T14:39:31;9.00;99.90
8563;DHT22;16392;52.508;13.468;2024-01-30T14:41:59;9.00;99.90
8563;DHT22;16392;52.508;13.468;2024-01-30T14:44:26;9.00;99.90
8563;DHT22;16392;52.508;13.468;2024-01-30T14:46:53;9.00;99.90
8563;DHT22;16392;52.508;13.468;2024-01-30T14:49:24;9.00;99.90
8563;DHT22;16392;52.508;13.468;2024-01-30T14:51:50;8.90;99.90
8563;DHT22;16392;52.508;13.468;2024-01-30T14:54:17;8.90;99.90
8563;DHT22;16392;52.508;13.468;2024-01-30T14:56:44;8.90;1.00
8563;DHT22;16392;52.508;13.468;2024-01-30T14:59:11;8.90;1.00
8563;DHT22;16392;52.508;13.468;2024-01-30T15:01:38;8.90;1.00
8563;DHT22;16392;52.508;13.468;2024-01-30T15:04:05;8.90;1.00
8563;DHT22;16392;52.508;13.468;2024-01-30T15:06:33;8.80;1.00
8563;DHT22;16392;52.508;13.468;2024-01-30T15:09:01;8.80;1.00
8563;DHT22;16392;52.508;13.468;2024-01-30T15:11:28;8.80;1.00
8563;DHT22;16392;52.508;13.468;2024-01-30T15:13:58;8.70;1.00
8563;DHT22;16392;52.508;13.468;2024-01-30T15:16:24;8.70;1.00
8563;DHT22;16392;52.508;13.468;2024-01-30T15:18:51;8.70;24.50
8563;DHT22;16392;52.508;13.468;2024-01-30T15:21:18;8.70;30.50
8563;DHT22;16392;52.508;13.468;2024-01-30T15:23:49;8.60;99.90
8563;DHT22;16392;52.508;13.468;2024-01-30T15:26:16;8.60;99.90
8563;DHT22;16392;52.508;13.468;2024-01-30T15:28:42;8.60;99.90
8563;DHT22;16392;52.508;13.468;2024-01-30T15:31:09;8.60;99.90
8563;DHT22;16392;52.508;13.468;2024-01-30T15:33:36;8.60;99.90
8563;DHT22;16392;52.508;13.468;2024-01-30T15:36:03;8.50;99.90
8563;DHT22;16392;52.508;13.468;2024-01-30T15:38:30;8.50;99.90
8563;DHT22;16392;52.508;13.468;2024-01-30T15:40:58;8.50;1.00
8563;DHT22;16392;52.508;13.468;2024-01-30T15:43:25;8.50;1.00
8563;DHT22;16392;52.508;13.468;2024-01-30T15:45:52;8.40;1.00
8563;DHT22;16392;52.508;13.468;2024-01-30T15:48:18;8.40;1.00
8563;DHT22;16392;52.508;13.468;2024-01-30T15:50:49;8.30;1.00
8563;DHT22;16392;52.508;13.468;2024-01-30T15:53:16;8.30;1.00
8563;DHT22;16392;52.508;13.468;2024-01-30T15:55:50;8.30;1.00